This is the latest recevied weather packets stored in our database for station/object SQ6XL-13. If no packets are shown the sender has not sent any weather packets the latest 10 day(s).
| Time | Temp. | Humidity | Pressure | Rain* | Wind** | Luminosity | Snow |
|---|---|---|---|---|---|---|---|
| 1777784871 | 16.11° C | 49% | 1017.9 hPa | 0 mm | - | - | - |
| 1777784272 | 16.11° C | 50% | 1017.8 hPa | 0 mm | - | - | - |
| 1777783687 | 15.56° C | 52% | 1017.9 hPa | 0 mm | - | - | - |
| 1777783127 | 15.56° C | 52% | 1017.7 hPa | 0 mm | - | - | - |
| 1777782591 | 15° C | 53% | 1017.9 hPa | 0 mm | - | - | - |
| 1777782087 | 15° C | 54% | 1017.8 hPa | 0 mm | - | - | - |
| 1777781561 | 14.44° C | 54% | 1017.8 hPa | 0 mm | - | - | - |
| 1777781031 | 13.89° C | 57% | 1017.9 hPa | 0 mm | - | - | - |
| 1777780467 | 12.78° C | 58% | 1017.8 hPa | 0 mm | - | - | - |
| 1777779916 | 12.22° C | 60% | 1018 hPa | 0 mm | - | - | - |
| 1777779382 | 12.78° C | 59% | 1017.9 hPa | 0 mm | - | - | - |
| 1777778842 | 12.22° C | 60% | 1017.9 hPa | 0 mm | - | - | - |
| 1777778271 | 12.22° C | 62% | 1017.9 hPa | 0 mm | - | - | - |
| 1777777782 | 11.11° C | 66% | 1017.9 hPa | 0 mm | - | - | - |
| 1777777291 | 10° C | 70% | 1017.9 hPa | 0 mm | - | - | - |
| 1777776702 | 9.44° C | 73% | 1018.1 hPa | 0 mm | - | - | - |
| 1777776187 | 8.89° C | 75% | 1017.9 hPa | 0 mm | - | - | - |
| 1777775687 | 8.33° C | 75% | 1018 hPa | 0 mm | - | - | - |
| 1777775182 | 8.33° C | 75% | 1018.1 hPa | 0 mm | - | - | - |
| 1777774667 | 8.33° C | 78% | 1018.1 hPa | 0 mm | - | - | - |
| 1777774131 | 7.22° C | 81% | 1018.2 hPa | 0 mm | - | - | - |
| 1777773652 | 6.67° C | 81% | 1018.3 hPa | 0 mm | - | - | - |
| 1777773122 | 6.11° C | 81% | 1018.2 hPa | 0 mm | - | - | - |
| 1777772557 | 5.56° C | 82% | 1018.3 hPa | 0 mm | - | - | - |
| 1777772007 | 5.56° C | 82% | 1018.2 hPa | 0 mm | - | - | - |
* Rain latest hour (hover to see other rain measurements)
** Current wind speed in m/s (hover to see current wind gust speed)